Terminal Aerodrome Forecast
Issued by NWS Charleston, WV

Current Version | Previous Version | Graphics & Text | Print | Product List | Glossary On
Versions: 1 2 3 4 5 6 7 8 9 10 11 12 13 14 15 16 17 18 19 20 21 22 23 24 25
000
FTUS41 KRLX 262300
TAFCRW
TAF
KCRW 262339Z 2700/2724 29007KT 6SM -SN BR OVC011
     FM270200 30006KT 4SM BR OVC014
     FM271200 31004KT 6SM BR BKN008
     FM271800 31005KT P6SM OVC015=

USA.gov is the U.S. government's official web portal to all federal, state and local government web resources and services.